createdAt,value
2017-12-08T00:00:22.985Z,6.26
2017-12-08T00:01:03.552Z,6.17
2017-12-08T00:01:44.137Z,6.24
2017-12-08T00:02:24.740Z,6.27
2017-12-08T00:03:05.387Z,6.27
2017-12-08T00:03:45.981Z,6.26
2017-12-08T00:04:26.586Z,6.28
2017-12-08T00:05:07.168Z,6.28
2017-12-08T00:05:47.779Z,6.31
2017-12-08T00:06:28.382Z,6.31
2017-12-08T00:07:08.977Z,6.28
2017-12-08T00:07:49.554Z,6.27
2017-12-08T00:08:30.149Z,6.28
2017-12-08T00:09:10.752Z,6.3
2017-12-08T00:09:51.378Z,6.31
2017-12-08T00:10:31.982Z,6.3
2017-12-08T00:11:12.575Z,6.31
2017-12-08T00:11:53.161Z,6.31
2017-12-08T00:12:33.737Z,6.26
2017-12-08T00:13:14.345Z,6.33
2017-12-08T00:13:54.923Z,6.22
2017-12-08T00:14:35.528Z,6.28
2017-12-08T00:15:16.147Z,6.26
2017-12-08T00:15:56.796Z,6.36
2017-12-08T00:16:37.385Z,6.3
2017-12-08T00:17:17.996Z,6.31
2017-12-08T00:17:58.633Z,6.33
2017-12-08T00:18:39.223Z,6.27
2017-12-08T00:19:19.814Z,6.3
2017-12-08T00:20:00.388Z,6.24
2017-12-08T00:20:40.991Z,6.28
2017-12-08T00:21:21.573Z,6.31
2017-12-08T00:22:02.165Z,6.22
2017-12-08T00:22:42.758Z,6.3
2017-12-08T00:23:23.363Z,6.33
2017-12-08T00:24:03.971Z,6.19
2017-12-08T00:24:44.555Z,6.22
2017-12-08T00:25:25.190Z,6.27
2017-12-08T00:26:05.778Z,6.33
2017-12-08T00:26:46.355Z,6.31
2017-12-08T00:27:26.997Z,6.3
2017-12-08T00:28:07.601Z,6.26
2017-12-08T00:28:48.285Z,6.33
2017-12-08T00:29:28.874Z,6.28
2017-12-08T00:30:09.465Z,6.33
2017-12-08T00:30:50.063Z,6.3
2017-12-08T00:31:30.643Z,6.2
2017-12-08T00:32:11.232Z,6.31
2017-12-08T00:32:51.849Z,6.35
2017-12-08T00:33:32.604Z,6.28
2017-12-08T00:34:13.278Z,6.22
2017-12-08T00:34:53.914Z,6.3
2017-12-08T00:35:34.524Z,6.27
2017-12-08T00:36:15.169Z,6.24
2017-12-08T00:36:55.749Z,6.27
2017-12-08T00:37:36.327Z,6.35
2017-12-08T00:38:16.928Z,6.17
2017-12-08T00:38:57.524Z,6.27
2017-12-08T00:39:38.122Z,6.2
2017-12-08T00:40:18.737Z,6.3
2017-12-08T00:40:59.321Z,6.28
2017-12-08T00:41:39.903Z,6.2
2017-12-08T00:42:20.503Z,6.22
2017-12-08T00:43:01.099Z,6.24
2017-12-08T00:43:41.661Z,6.2
2017-12-08T00:44:22.223Z,6.31
2017-12-08T00:45:02.810Z,6.24
2017-12-08T00:45:43.400Z,6.33
2017-12-08T00:46:24.003Z,6.22
2017-12-08T00:47:04.590Z,6.36
2017-12-08T00:47:45.213Z,6.31
2017-12-08T00:48:25.793Z,6.3
2017-12-08T00:49:06.368Z,6.31
2017-12-08T00:49:46.976Z,6.3
2017-12-08T00:50:27.561Z,6.26
2017-12-08T00:51:08.136Z,6.26
2017-12-08T00:51:48.734Z,6.3
2017-12-08T00:52:29.314Z,6.31
2017-12-08T00:53:09.900Z,6.33
2017-12-08T00:53:50.509Z,6.36
2017-12-08T00:54:31.079Z,6.26
2017-12-08T00:55:11.664Z,6.33
2017-12-08T00:55:52.253Z,6.26
2017-12-08T00:56:32.840Z,6.26
2017-12-08T00:57:13.478Z,6.36
2017-12-08T00:57:54.067Z,6.3
2017-12-08T00:58:34.665Z,6.28
2017-12-08T00:59:15.245Z,6.27
2017-12-08T00:59:55.818Z,6.3
2017-12-08T01:00:36.385Z,6.28
2017-12-08T01:01:16.976Z,6.28
2017-12-08T01:01:57.556Z,6.31
2017-12-08T01:02:38.122Z,6.24
2017-12-08T01:03:18.690Z,6.28
2017-12-08T01:03:59.278Z,6.26
2017-12-08T01:04:39.860Z,6.38
2017-12-08T01:05:20.429Z,6.27
2017-12-08T01:06:01.009Z,6.35
2017-12-08T01:06:41.576Z,6.22
2017-12-08T01:07:22.150Z,6.3
2017-12-08T01:08:02.716Z,6.3
2017-12-08T01:08:43.287Z,6.28
2017-12-08T01:09:23.882Z,6.26
2017-12-08T01:10:04.459Z,6.31
2017-12-08T01:10:45.047Z,6.3
2017-12-08T01:11:25.618Z,6.38
2017-12-08T01:12:06.203Z,6.38
2017-12-08T01:12:46.826Z,6.33
2017-12-08T01:13:27.400Z,6.31
2017-12-08T01:14:08.033Z,6.26
2017-12-08T01:14:48.610Z,6.3
2017-12-08T01:15:29.169Z,6.33
2017-12-08T01:16:09.737Z,6.36
2017-12-08T01:16:50.978Z,6.3
2017-12-08T01:17:31.567Z,6.28
2017-12-08T01:18:12.175Z,6.36
2017-12-08T01:18:52.735Z,6.38
2017-12-08T01:19:33.312Z,6.44
2017-12-08T01:20:13.901Z,6.39
2017-12-08T01:20:54.497Z,6.45
2017-12-08T01:21:35.067Z,6.33
2017-12-08T01:22:15.656Z,6.42
2017-12-08T01:22:56.234Z,6.45
2017-12-08T01:23:36.858Z,6.39
2017-12-08T01:24:17.427Z,6.46
2017-12-08T01:24:58.006Z,6.36
2017-12-08T01:25:38.587Z,6.41
2017-12-08T01:26:19.162Z,6.36
2017-12-08T01:26:59.732Z,6.42
2017-12-08T01:27:40.316Z,6.41
2017-12-08T01:28:20.897Z,6.39
2017-12-08T01:29:01.481Z,6.35
2017-12-08T01:29:42.049Z,6.39
2017-12-08T01:30:22.692Z,6.39
2017-12-08T01:31:03.249Z,6.42
2017-12-08T01:31:43.840Z,6.31
2017-12-08T01:32:24.417Z,6.27
2017-12-08T01:33:05.043Z,6.41
2017-12-08T01:33:45.588Z,6.3
2017-12-08T01:34:26.156Z,6.31
2017-12-08T01:35:06.737Z,6.3
2017-12-08T01:35:47.319Z,6.35
2017-12-08T01:36:27.941Z,6.28
2017-12-08T01:37:08.556Z,6.33
2017-12-08T01:37:49.130Z,6.33
2017-12-08T01:38:29.741Z,6.39
2017-12-08T01:39:10.346Z,6.3
2017-12-08T01:39:50.923Z,6.33
2017-12-08T01:40:31.513Z,6.45
2017-12-08T01:41:12.094Z,6.33
2017-12-08T01:41:52.689Z,6.41
2017-12-08T01:42:33.299Z,6.41
2017-12-08T01:43:13.950Z,6.38
2017-12-08T01:43:54.513Z,6.38
2017-12-08T01:44:35.129Z,6.35
2017-12-08T01:45:15.699Z,6.38
2017-12-08T01:45:56.274Z,6.38
2017-12-08T01:46:36.849Z,6.42
2017-12-08T01:47:17.485Z,6.42
2017-12-08T01:47:58.119Z,6.38
2017-12-08T01:48:38.697Z,6.44
2017-12-08T01:49:19.287Z,6.39
2017-12-08T01:49:59.863Z,6.39
2017-12-08T01:50:40.461Z,6.42
2017-12-08T01:51:21.048Z,6.33
2017-12-08T01:52:01.667Z,6.36
2017-12-08T01:52:42.242Z,6.41
2017-12-08T01:53:22.833Z,6.39
2017-12-08T01:54:03.434Z,6.31
2017-12-08T01:54:44.025Z,6.39
2017-12-08T01:55:24.598Z,6.39
2017-12-08T01:56:05.184Z,6.45
2017-12-08T01:56:45.779Z,6.45
2017-12-08T01:57:26.378Z,6.38
2017-12-08T01:58:06.955Z,6.38
2017-12-08T01:58:47.559Z,6.45
2017-12-08T01:59:28.159Z,6.42
2017-12-08T02:00:08.757Z,6.38
2017-12-08T02:00:49.318Z,6.44
2017-12-08T02:01:29.898Z,6.41
2017-12-08T02:02:10.495Z,6.41
2017-12-08T02:02:51.065Z,6.36
2017-12-08T02:03:31.625Z,6.42
2017-12-08T02:04:12.191Z,6.39
2017-12-08T02:04:52.767Z,6.42
2017-12-08T02:05:33.339Z,6.38
2017-12-08T02:06:13.924Z,6.48
2017-12-08T02:06:54.505Z,6.38
2017-12-08T02:07:35.098Z,6.45
2017-12-08T02:08:15.678Z,6.42
2017-12-08T02:08:56.291Z,6.45
2017-12-08T02:09:36.901Z,6.45
2017-12-08T02:10:17.483Z,6.45
2017-12-08T02:10:58.045Z,6.45
2017-12-08T02:11:38.606Z,6.45
2017-12-08T02:12:19.173Z,6.41
2017-12-08T02:12:59.763Z,6.46
2017-12-08T02:13:40.365Z,6.48
2017-12-08T02:14:20.940Z,6.41
2017-12-08T02:15:01.523Z,6.42
2017-12-08T02:15:42.120Z,6.48
2017-12-08T02:16:22.705Z,6.46
2017-12-08T02:17:03.270Z,6.44
2017-12-08T02:17:43.841Z,6.46
2017-12-08T02:18:24.412Z,6.46
2017-12-08T02:19:04.985Z,6.42
2017-12-08T02:19:45.563Z,6.38
2017-12-08T02:20:26.137Z,6.42
2017-12-08T02:21:06.716Z,6.45
2017-12-08T02:21:47.309Z,6.41
2017-12-08T02:22:27.900Z,6.42
2017-12-08T02:23:08.477Z,6.39
2017-12-08T02:23:49.065Z,6.42
2017-12-08T02:24:29.674Z,6.41
2017-12-08T02:25:10.275Z,6.41
2017-12-08T02:25:50.844Z,6.42
2017-12-08T02:26:31.424Z,6.42
2017-12-08T02:27:11.990Z,6.46
2017-12-08T02:27:52.560Z,6.52
2017-12-08T02:28:33.155Z,6.45
2017-12-08T02:29:13.724Z,6.48
2017-12-08T02:29:54.308Z,6.42
2017-12-08T02:30:34.881Z,6.56
2017-12-08T02:31:15.447Z,6.49
2017-12-08T02:31:56.022Z,6.46
2017-12-08T02:32:36.597Z,6.51
2017-12-08T02:33:17.195Z,6.45
2017-12-08T02:33:57.772Z,6.46
2017-12-08T02:34:38.351Z,6.51
2017-12-08T02:35:18.934Z,6.52
2017-12-08T02:35:59.494Z,6.52
2017-12-08T02:36:40.062Z,6.45
2017-12-08T02:37:20.655Z,6.54
2017-12-08T02:38:01.245Z,6.52
2017-12-08T02:38:41.815Z,6.51
2017-12-08T02:39:22.382Z,6.48
2017-12-08T02:40:02.968Z,6.52
2017-12-08T02:40:43.539Z,6.45
2017-12-08T02:41:24.124Z,6.52
2017-12-08T02:42:04.714Z,6.57
2017-12-08T02:42:45.304Z,6.44
2017-12-08T02:43:25.893Z,6.45
2017-12-08T02:44:06.477Z,6.51
2017-12-08T02:44:47.057Z,6.49
2017-12-08T02:45:27.794Z,6.52
2017-12-08T02:46:08.361Z,6.46
2017-12-08T02:46:48.954Z,6.54
2017-12-08T02:47:29.538Z,6.62
2017-12-08T02:48:10.120Z,6.45
2017-12-08T02:48:50.693Z,6.49
2017-12-08T02:49:31.246Z,6.56
2017-12-08T02:50:11.827Z,6.54
2017-12-08T02:50:52.391Z,6.57
2017-12-08T02:51:32.980Z,6.54
2017-12-08T02:52:13.542Z,6.59
2017-12-08T02:52:54.109Z,6.48
2017-12-08T02:53:34.695Z,6.62
2017-12-08T02:54:15.316Z,6.51
2017-12-08T02:54:55.886Z,6.49
2017-12-08T02:55:36.454Z,6.44
2017-12-08T02:56:17.036Z,6.52
2017-12-08T02:56:57.601Z,6.44
2017-12-08T02:57:38.203Z,6.49
2017-12-08T02:58:18.784Z,6.59
2017-12-08T02:58:59.350Z,6.59
2017-12-08T02:59:39.918Z,6.56
2017-12-08T03:00:20.493Z,6.54
2017-12-08T03:01:01.081Z,6.54
2017-12-08T03:01:41.640Z,6.59
2017-12-08T03:02:22.224Z,6.48
2017-12-08T03:03:02.776Z,6.54
2017-12-08T03:03:43.354Z,6.45
2017-12-08T03:04:23.958Z,6.49
2017-12-08T03:05:04.653Z,6.57
2017-12-08T03:05:45.237Z,6.56
2017-12-08T03:06:25.797Z,6.57
2017-12-08T03:07:06.374Z,6.49
2017-12-08T03:07:46.947Z,6.57
2017-12-08T03:08:27.517Z,6.59
2017-12-08T03:09:08.070Z,6.64
2017-12-08T03:09:48.637Z,6.56
2017-12-08T03:10:29.205Z,6.62
2017-12-08T03:11:09.771Z,6.6
2017-12-08T03:11:50.380Z,6.59
2017-12-08T03:12:30.968Z,6.63
2017-12-08T03:13:11.536Z,6.6
2017-12-08T03:13:52.096Z,6.63
2017-12-08T03:14:32.671Z,6.6
2017-12-08T03:15:13.228Z,6.6
2017-12-08T03:15:53.802Z,6.63
2017-12-08T03:16:34.392Z,6.64
2017-12-08T03:17:15.000Z,6.64
2017-12-08T03:17:55.602Z,6.67
2017-12-08T03:18:36.170Z,6.6
2017-12-08T03:19:16.737Z,6.63
2017-12-08T03:19:57.331Z,6.56
2017-12-08T03:20:37.901Z,6.74
2017-12-08T03:21:18.480Z,6.6
2017-12-08T03:21:59.046Z,6.72
2017-12-08T03:22:39.622Z,6.67
2017-12-08T03:23:20.229Z,6.69
2017-12-08T03:24:00.793Z,6.69
2017-12-08T03:24:41.373Z,6.78
2017-12-08T03:25:21.965Z,6.72
2017-12-08T03:26:02.555Z,6.78
2017-12-08T03:26:43.139Z,6.67
2017-12-08T03:27:23.746Z,6.74
2017-12-08T03:28:04.328Z,6.66
2017-12-08T03:28:44.902Z,6.78
2017-12-08T03:29:25.502Z,6.74
2017-12-08T03:30:06.105Z,6.72
2017-12-08T03:30:46.675Z,6.66
2017-12-08T03:31:27.283Z,6.7
2017-12-08T03:32:07.843Z,6.69
2017-12-08T03:32:48.402Z,6.66
2017-12-08T03:33:28.984Z,6.64
2017-12-08T03:34:09.566Z,6.72
2017-12-08T03:34:50.154Z,6.7
2017-12-08T03:35:30.728Z,6.67
2017-12-08T03:36:11.315Z,6.78
2017-12-08T03:36:51.906Z,6.78
2017-12-08T03:37:32.489Z,6.78
2017-12-08T03:38:13.068Z,6.7
2017-12-08T03:38:53.655Z,6.72
2017-12-08T03:39:34.223Z,6.63
2017-12-08T03:40:14.790Z,6.77
2017-12-08T03:40:55.357Z,6.74
2017-12-08T03:41:35.948Z,6.62
2017-12-08T03:42:16.517Z,6.77
2017-12-08T03:42:57.091Z,6.62
2017-12-08T03:43:37.663Z,6.72
2017-12-08T03:44:18.253Z,6.75
2017-12-08T03:44:58.848Z,6.69
2017-12-08T03:45:39.415Z,6.67
2017-12-08T03:46:19.989Z,6.74
2017-12-08T03:47:00.577Z,6.72
2017-12-08T03:47:41.171Z,6.72
2017-12-08T03:48:21.777Z,6.66
2017-12-08T03:49:02.397Z,6.75
2017-12-08T03:49:42.980Z,6.72
2017-12-08T03:50:23.549Z,6.74
2017-12-08T03:51:04.146Z,6.7
2017-12-08T03:51:44.712Z,6.79
2017-12-08T03:52:25.272Z,6.72
2017-12-08T03:53:05.853Z,6.75
2017-12-08T03:53:46.432Z,6.63
2017-12-08T03:54:26.998Z,6.69
2017-12-08T03:55:07.556Z,6.78
2017-12-08T03:55:48.122Z,6.74
2017-12-08T03:56:28.682Z,6.74
2017-12-08T03:57:09.253Z,6.77
2017-12-08T03:57:49.824Z,6.74
2017-12-08T03:58:30.391Z,6.75
2017-12-08T03:59:10.957Z,6.7
2017-12-08T03:59:51.557Z,6.79
2017-12-08T04:00:32.164Z,6.79
2017-12-08T04:01:12.737Z,6.74
2017-12-08T04:01:53.307Z,6.69
2017-12-08T04:02:33.905Z,6.7
2017-12-08T04:03:14.485Z,6.7
2017-12-08T04:03:55.070Z,6.72
2017-12-08T04:04:35.669Z,6.67
2017-12-08T04:05:16.228Z,6.72
2017-12-08T04:05:56.804Z,6.72
2017-12-08T04:06:37.367Z,6.75
2017-12-08T04:07:17.962Z,6.72
2017-12-08T04:07:58.530Z,6.74
2017-12-08T04:08:39.118Z,6.77
2017-12-08T04:09:19.698Z,6.79
2017-12-08T04:10:00.266Z,6.7
2017-12-08T04:10:40.849Z,6.75
2017-12-08T04:11:21.435Z,6.77
2017-12-08T04:12:02.000Z,6.69
2017-12-08T04:12:42.593Z,6.72
2017-12-08T04:13:23.167Z,6.7
2017-12-08T04:14:03.737Z,6.69
2017-12-08T04:14:44.334Z,6.67
2017-12-08T04:15:24.919Z,6.74
2017-12-08T04:16:05.866Z,6.69
2017-12-08T04:16:46.210Z,6.67
2017-12-08T04:17:26.812Z,6.75
2017-12-08T04:18:07.410Z,6.7
2017-12-08T04:18:47.996Z,6.69
2017-12-08T04:19:28.578Z,6.72
2017-12-08T04:20:09.154Z,6.59
2017-12-08T04:20:49.712Z,6.69
2017-12-08T04:21:30.276Z,6.74
2017-12-08T04:22:10.853Z,6.64
2017-12-08T04:22:51.429Z,6.62
2017-12-08T04:23:31.996Z,6.69
2017-12-08T04:24:12.563Z,6.62
2017-12-08T04:24:53.140Z,6.63
2017-12-08T04:25:33.729Z,6.64
2017-12-08T04:26:14.306Z,6.59
2017-12-08T04:26:54.873Z,6.62
2017-12-08T04:27:35.447Z,6.69
2017-12-08T04:28:16.034Z,6.62
2017-12-08T04:28:56.615Z,6.64
2017-12-08T04:29:37.201Z,6.6
2017-12-08T04:30:17.760Z,6.63
2017-12-08T04:30:58.363Z,6.62
2017-12-08T04:31:38.934Z,6.66
2017-12-08T04:32:19.511Z,6.62
2017-12-08T04:33:00.086Z,6.62
2017-12-08T04:33:40.678Z,6.67
2017-12-08T04:34:21.257Z,6.62
2017-12-08T04:35:01.838Z,6.62
2017-12-08T04:35:42.402Z,6.64
2017-12-08T04:36:22.980Z,6.56
2017-12-08T04:37:03.543Z,6.62
2017-12-08T04:37:44.136Z,6.59
2017-12-08T04:38:24.699Z,6.62
2017-12-08T04:39:05.277Z,6.57
2017-12-08T04:39:45.844Z,6.54
2017-12-08T04:40:26.433Z,6.57
2017-12-08T04:41:07.014Z,6.56
2017-12-08T04:41:47.613Z,6.57
2017-12-08T04:42:28.186Z,6.63
2017-12-08T04:43:08.799Z,6.62
2017-12-08T04:43:49.388Z,6.59
2017-12-08T04:44:29.965Z,6.59
2017-12-08T04:45:10.572Z,6.63
2017-12-08T04:45:51.156Z,6.59
2017-12-08T04:46:31.716Z,6.64
2017-12-08T04:47:12.292Z,6.63
2017-12-08T04:47:52.860Z,6.54
2017-12-08T04:48:33.481Z,6.62
2017-12-08T04:49:14.064Z,6.67
2017-12-08T04:49:54.657Z,6.64
2017-12-08T04:50:35.252Z,6.66
2017-12-08T04:51:15.827Z,6.67
2017-12-08T04:51:56.395Z,6.6
2017-12-08T04:52:37.018Z,6.64
2017-12-08T04:53:17.652Z,6.64
2017-12-08T04:53:58.213Z,6.64
2017-12-08T04:54:38.804Z,6.6
2017-12-08T04:55:19.418Z,6.67
2017-12-08T04:55:59.970Z,6.62
2017-12-08T04:56:40.532Z,6.6
2017-12-08T04:57:21.104Z,6.64
2017-12-08T04:58:01.694Z,6.59
2017-12-08T04:58:42.289Z,6.62
2017-12-08T04:59:22.879Z,6.64
2017-12-08T05:00:03.468Z,6.59
2017-12-08T05:00:44.038Z,6.6
2017-12-08T05:01:24.610Z,6.52
2017-12-08T05:02:05.180Z,6.62
2017-12-08T05:02:45.779Z,6.57
2017-12-08T05:03:26.354Z,6.56
2017-12-08T05:04:06.933Z,6.63
2017-12-08T05:04:47.556Z,6.59
2017-12-08T05:05:28.128Z,6.56
2017-12-08T05:06:08.702Z,6.51
2017-12-08T05:06:49.281Z,6.64
2017-12-08T05:07:29.858Z,6.59
2017-12-08T05:08:10.445Z,6.57
2017-12-08T05:08:51.040Z,6.64
2017-12-08T05:09:31.642Z,6.54
2017-12-08T05:10:12.233Z,6.6
2017-12-08T05:10:52.808Z,6.49
2017-12-08T05:11:33.403Z,6.54
2017-12-08T05:12:14.028Z,6.45
2017-12-08T05:12:54.588Z,6.52
2017-12-08T05:13:35.164Z,6.57
2017-12-08T05:14:15.756Z,6.48
2017-12-08T05:14:56.309Z,6.45
2017-12-08T05:15:36.894Z,6.44
2017-12-08T05:16:17.505Z,6.44
2017-12-08T05:16:58.066Z,6.44
2017-12-08T05:17:38.680Z,6.46
2017-12-08T05:18:19.274Z,6.54
2017-12-08T05:18:59.886Z,6.42
2017-12-08T05:19:40.500Z,6.44
2017-12-08T05:20:21.063Z,6.44
2017-12-08T05:21:01.643Z,6.56
2017-12-08T05:21:42.234Z,6.49
2017-12-08T05:22:22.792Z,6.46
2017-12-08T05:23:03.377Z,6.46
2017-12-08T05:23:43.954Z,6.49
2017-12-08T05:24:24.534Z,6.45
2017-12-08T05:25:05.112Z,6.51
2017-12-08T05:25:45.690Z,6.51
2017-12-08T05:26:26.259Z,6.56
2017-12-08T05:27:06.832Z,6.45
2017-12-08T05:27:47.410Z,6.57
2017-12-08T05:28:27.992Z,6.45
2017-12-08T05:29:08.583Z,6.57
2017-12-08T05:29:49.188Z,6.57
2017-12-08T05:30:29.762Z,6.46
2017-12-08T05:31:10.322Z,6.49
2017-12-08T05:31:50.944Z,6.51
2017-12-08T05:32:31.502Z,6.52
2017-12-08T05:33:12.098Z,6.57
2017-12-08T05:33:52.671Z,6.44
2017-12-08T05:34:33.242Z,6.46
2017-12-08T05:35:13.826Z,6.52
2017-12-08T05:35:54.397Z,6.52
2017-12-08T05:36:34.970Z,6.48
2017-12-08T05:37:15.552Z,6.45
2017-12-08T05:37:56.138Z,6.45
2017-12-08T05:38:36.713Z,6.41
2017-12-08T05:39:17.304Z,6.42
2017-12-08T05:39:57.905Z,6.45
2017-12-08T05:40:38.465Z,6.38
2017-12-08T05:41:19.015Z,6.39
2017-12-08T05:41:59.575Z,6.45
2017-12-08T05:42:40.174Z,6.35
2017-12-08T05:43:20.734Z,6.44
2017-12-08T05:44:01.301Z,6.46
2017-12-08T05:44:41.894Z,6.44
2017-12-08T05:45:23.483Z,6.42
2017-12-08T05:46:04.066Z,6.45
2017-12-08T05:46:44.666Z,6.46
2017-12-08T05:47:25.279Z,6.45
2017-12-08T05:48:05.840Z,6.49
2017-12-08T05:48:46.429Z,6.41
2017-12-08T05:49:26.984Z,6.38
2017-12-08T05:50:07.991Z,6.44
2017-12-08T05:50:48.558Z,6.35
2017-12-08T05:51:29.267Z,6.42
2017-12-08T05:52:09.847Z,6.45
2017-12-08T05:52:50.418Z,6.42
2017-12-08T05:53:31.018Z,6.45
2017-12-08T05:54:11.609Z,6.41
2017-12-08T05:54:52.256Z,6.46
2017-12-08T05:55:32.813Z,6.48
2017-12-08T05:56:13.913Z,6.46
2017-12-08T05:56:54.478Z,6.51
2017-12-08T05:57:35.046Z,6.44
2017-12-08T05:58:15.645Z,6.42
2017-12-08T05:58:56.233Z,6.35
2017-12-08T05:59:36.850Z,6.41
2017-12-08T06:00:17.418Z,6.39
2017-12-08T06:00:57.982Z,6.33
2017-12-08T06:01:38.585Z,6.45
2017-12-08T06:02:19.154Z,6.38
2017-12-08T06:02:59.721Z,6.41
2017-12-08T06:03:40.426Z,6.38
2017-12-08T06:04:21.402Z,6.36
2017-12-08T06:05:02.192Z,6.41
2017-12-08T06:05:42.965Z,6.45
2017-12-08T06:06:23.732Z,6.44
2017-12-08T06:07:04.754Z,6.42
2017-12-08T06:07:45.404Z,6.44
2017-12-08T06:08:26.573Z,6.39
2017-12-08T06:09:10.974Z,6.38
2017-12-08T06:09:51.740Z,6.36
2017-12-08T06:10:32.908Z,6.33
2017-12-08T06:11:13.682Z,6.44
2017-12-08T06:11:54.515Z,6.44
2017-12-08T06:12:35.533Z,6.33
2017-12-08T06:13:16.264Z,6.36
2017-12-08T06:13:56.937Z,6.41
2017-12-08T06:14:37.549Z,6.39
2017-12-08T06:15:18.274Z,6.41
2017-12-08T06:15:59.176Z,6.39
2017-12-08T06:16:40.331Z,6.41
2017-12-08T06:17:21.268Z,6.45
2017-12-08T06:18:01.905Z,6.38
2017-12-08T06:18:42.807Z,6.38
2017-12-08T06:19:23.542Z,6.36
2017-12-08T06:20:04.565Z,6.45
2017-12-08T06:20:45.142Z,6.41
2017-12-08T06:21:26.002Z,6.33
2017-12-08T06:22:07.183Z,6.42
2017-12-08T06:22:47.757Z,6.41
2017-12-08T06:23:28.348Z,6.51
2017-12-08T06:24:08.927Z,6.41
2017-12-08T06:24:49.487Z,6.42
2017-12-08T06:25:30.048Z,6.35
2017-12-08T06:26:10.608Z,6.39
2017-12-08T06:26:51.189Z,6.42
2017-12-08T06:27:31.762Z,6.44
2017-12-08T06:28:12.347Z,6.51
2017-12-08T06:28:52.905Z,6.52
2017-12-08T06:29:33.544Z,6.51
2017-12-08T06:30:14.093Z,6.51
2017-12-08T06:30:54.662Z,6.54
2017-12-08T06:31:35.336Z,6.45
2017-12-08T06:32:15.899Z,6.48
2017-12-08T06:32:56.921Z,6.59
2017-12-08T06:33:37.974Z,6.52
2017-12-08T06:34:18.589Z,6.56
2017-12-08T06:34:59.294Z,6.64
2017-12-08T06:35:40.234Z,6.6
2017-12-08T06:36:20.968Z,6.64
2017-12-08T06:37:01.562Z,6.62
2017-12-08T06:37:42.178Z,6.57
2017-12-08T06:38:22.750Z,6.62
2017-12-08T06:39:03.317Z,6.56
2017-12-08T06:39:44.174Z,6.6
2017-12-08T06:40:25.191Z,6.64
2017-12-08T06:41:06.025Z,6.54
2017-12-08T06:41:46.842Z,6.62
2017-12-08T06:42:27.624Z,6.62
2017-12-08T06:43:08.527Z,6.69
2017-12-08T06:43:49.414Z,6.6
2017-12-08T06:44:30.020Z,6.64
2017-12-08T06:45:10.613Z,6.62
2017-12-08T06:45:51.205Z,6.56
2017-12-08T06:46:31.786Z,6.56
2017-12-08T06:47:12.375Z,6.54
2017-12-08T06:47:52.953Z,6.57
2017-12-08T06:48:33.528Z,6.64
2017-12-08T06:49:14.115Z,6.59
2017-12-08T06:49:54.778Z,6.48
2017-12-08T06:50:35.369Z,6.56
2017-12-08T06:51:16.155Z,6.48
2017-12-08T06:51:56.864Z,6.56
2017-12-08T06:52:37.432Z,6.52
2017-12-08T06:53:18.116Z,6.59
2017-12-08T06:53:59.008Z,6.49
2017-12-08T06:54:39.831Z,6.51
2017-12-08T06:55:20.415Z,6.45
2017-12-08T06:56:01.145Z,6.57
2017-12-08T06:56:41.830Z,6.49
2017-12-08T06:57:22.638Z,6.46
2017-12-08T06:58:03.373Z,6.49
2017-12-08T06:58:44.118Z,6.56
2017-12-08T06:59:24.870Z,6.49
2017-12-08T07:00:05.578Z,6.51
2017-12-08T07:00:46.146Z,6.51
2017-12-08T07:01:26.736Z,6.51
2017-12-08T07:02:07.543Z,6.44
2017-12-08T07:02:48.543Z,6.45
2017-12-08T07:03:29.132Z,6.45
2017-12-08T07:04:09.702Z,6.45
2017-12-08T07:04:50.264Z,6.41
2017-12-08T07:05:31.015Z,6.36
2017-12-08T07:06:12.147Z,6.41
2017-12-08T07:06:52.833Z,6.36
2017-12-08T07:07:33.467Z,6.35
2017-12-08T07:08:14.209Z,6.41
2017-12-08T07:08:55.013Z,6.41
2017-12-08T07:09:35.927Z,6.45
2017-12-08T07:10:16.756Z,6.38
2017-12-08T07:12:09.633Z,6.45
2017-12-08T07:12:50.619Z,6.41
2017-12-08T07:13:31.557Z,6.39
2017-12-08T07:14:12.267Z,6.39
2017-12-08T07:14:53.256Z,6.39
2017-12-08T07:15:33.902Z,6.33
2017-12-08T07:16:14.807Z,6.31
2017-12-08T07:16:55.706Z,6.28
2017-12-08T07:17:36.373Z,6.44
2017-12-08T07:18:17.022Z,6.41
2017-12-08T07:18:57.894Z,6.35
2017-12-08T07:19:38.718Z,6.3
2017-12-08T07:20:19.296Z,6.35
2017-12-08T07:20:59.870Z,6.33
2017-12-08T07:21:40.527Z,6.38
2017-12-08T07:22:21.095Z,6.44
2017-12-08T07:23:02.369Z,6.38
2017-12-08T07:23:43.261Z,6.42
2017-12-08T07:24:24.100Z,6.38
2017-12-08T07:25:04.867Z,6.35
2017-12-08T07:25:45.549Z,6.44
2017-12-08T07:26:26.701Z,6.41
2017-12-08T07:27:07.986Z,6.36
2017-12-08T07:27:48.946Z,6.44
2017-12-08T07:28:29.991Z,6.46
2017-12-08T07:29:10.864Z,6.44
2017-12-08T07:29:51.817Z,6.46
2017-12-08T07:30:32.774Z,6.51
2017-12-08T07:31:13.717Z,6.48
2017-12-08T07:31:54.364Z,6.46
2017-12-08T07:32:35.254Z,6.49
2017-12-08T07:33:16.134Z,6.41
2017-12-08T07:33:56.675Z,6.48
2017-12-08T07:34:37.304Z,6.35
2017-12-08T07:35:17.906Z,6.42
2017-12-08T07:35:58.485Z,6.49
2017-12-08T07:36:39.164Z,6.38
2017-12-08T07:37:19.734Z,6.35
2017-12-08T07:38:00.294Z,6.45
2017-12-08T07:38:40.863Z,6.45
2017-12-08T07:39:21.667Z,6.42
2017-12-08T07:40:02.438Z,6.45
2017-12-08T07:40:43.486Z,6.45
2017-12-08T07:41:24.063Z,6.42
2017-12-08T07:42:04.684Z,6.45
2017-12-08T07:42:45.340Z,6.44
2017-12-08T07:43:25.850Z,6.42
2017-12-08T07:44:06.434Z,6.39
2017-12-08T07:44:47.028Z,6.36
2017-12-08T07:45:27.600Z,6.41
2017-12-08T07:46:08.170Z,6.42
2017-12-08T07:46:48.741Z,6.45
2017-12-08T07:47:29.312Z,6.33
2017-12-08T07:48:09.881Z,6.42
2017-12-08T07:48:50.477Z,6.39
2017-12-08T07:49:35.123Z,6.42
2017-12-08T07:50:15.826Z,6.45
2017-12-08T07:50:56.479Z,6.42
2017-12-08T07:51:37.095Z,6.38
2017-12-08T07:52:17.896Z,6.39
2017-12-08T07:52:58.520Z,6.45
2017-12-08T07:53:39.111Z,6.38
2017-12-08T07:54:19.697Z,6.41
2017-12-08T07:55:00.278Z,6.41
2017-12-08T07:55:40.858Z,6.39
2017-12-08T07:56:21.438Z,6.39
2017-12-08T07:57:02.012Z,6.42
2017-12-08T07:57:43.104Z,6.28
2017-12-08T07:58:24.013Z,6.38
2017-12-08T07:59:04.592Z,6.35
2017-12-08T07:59:45.176Z,6.41
2017-12-08T08:00:25.774Z,6.41
2017-12-08T08:01:06.338Z,6.35
2017-12-08T08:01:46.981Z,6.27
2017-12-08T08:02:27.581Z,6.28
2017-12-08T08:03:08.149Z,6.27
2017-12-08T08:03:48.716Z,6.31
2017-12-08T08:04:29.288Z,6.27
2017-12-08T08:05:09.886Z,6.24
2017-12-08T08:05:50.457Z,6.3
2017-12-08T08:06:31.044Z,6.26
2017-12-08T08:07:11.612Z,6.3
2017-12-08T08:07:52.188Z,6.33
2017-12-08T08:08:32.817Z,6.26
2017-12-08T08:09:13.404Z,6.28
2017-12-08T08:09:54.028Z,6.31
2017-12-08T08:10:34.658Z,6.36
2017-12-08T08:11:15.238Z,6.3
2017-12-08T08:11:55.807Z,6.3
2017-12-08T08:12:36.379Z,6.33
2017-12-08T08:13:16.994Z,6.35
2017-12-08T08:13:57.579Z,6.24
2017-12-08T08:14:38.159Z,6.3
2017-12-08T08:15:18.731Z,6.27
2017-12-08T08:15:59.304Z,6.28
2017-12-08T08:16:39.883Z,6.27
2017-12-08T08:17:20.461Z,6.28
2017-12-08T08:18:01.040Z,6.24
2017-12-08T08:18:41.604Z,6.26
2017-12-08T08:19:22.171Z,6.26
2017-12-08T08:20:02.753Z,6.31
2017-12-08T08:20:43.317Z,6.28
2017-12-08T08:21:23.905Z,6.3
2017-12-08T08:22:04.483Z,6.28
2017-12-08T08:22:45.094Z,6.3
2017-12-08T08:23:25.664Z,6.3
2017-12-08T08:24:06.223Z,6.33
2017-12-08T08:24:46.804Z,6.24
2017-12-08T08:25:27.381Z,6.26
2017-12-08T08:26:07.968Z,6.26
2017-12-08T08:26:48.551Z,6.26
2017-12-08T08:27:29.116Z,6.19
2017-12-08T08:28:09.701Z,6.24
2017-12-08T08:28:50.278Z,6.22
2017-12-08T08:29:30.847Z,6.24
2017-12-08T08:30:11.417Z,6.16
2017-12-08T08:30:51.983Z,6.19
2017-12-08T08:31:32.571Z,6.14
2017-12-08T08:32:13.147Z,6.16
2017-12-08T08:32:53.705Z,6.11
2017-12-08T08:33:34.310Z,6.11
2017-12-08T08:34:14.881Z,6.12
2017-12-08T08:34:55.462Z,6.09
2017-12-08T08:35:36.040Z,6.17
2017-12-08T08:36:16.617Z,6.2
2017-12-08T08:36:57.206Z,6.22
2017-12-08T08:37:37.783Z,6.16
2017-12-08T08:38:18.370Z,6.12
2017-12-08T08:38:58.937Z,6.12
2017-12-08T08:39:39.571Z,6.19
2017-12-08T08:40:20.151Z,6.26
2017-12-08T08:41:00.731Z,6.33
2017-12-08T08:41:41.315Z,6.31
2017-12-08T08:42:21.946Z,6.35
2017-12-08T08:43:02.521Z,6.35
2017-12-08T08:43:43.123Z,6.3
2017-12-08T08:44:23.704Z,6.36
2017-12-08T08:45:04.280Z,6.38
2017-12-08T08:45:44.852Z,6.57
2017-12-08T08:46:25.429Z,6.57
2017-12-08T08:47:06.019Z,6.78
2017-12-08T08:47:46.609Z,6.78
2017-12-08T08:48:27.197Z,6.92
2017-12-08T08:49:07.820Z,6.93
2017-12-08T08:49:48.383Z,7.02
2017-12-08T08:50:28.954Z,7.13
2017-12-08T08:51:09.539Z,7.25
2017-12-08T08:51:50.118Z,7.25
2017-12-08T08:52:30.716Z,7.33
2017-12-08T08:53:11.298Z,7.45
2017-12-08T08:53:51.907Z,7.51
2017-12-08T08:54:32.503Z,7.56
2017-12-08T08:55:13.113Z,7.63
2017-12-08T08:55:53.757Z,7.57
2017-12-08T08:56:34.357Z,7.66
2017-12-08T08:57:14.985Z,7.66
2017-12-08T08:57:55.565Z,7.73
2017-12-08T08:58:36.247Z,7.82
2017-12-08T08:59:16.997Z,7.75
2017-12-08T08:59:57.537Z,7.67
2017-12-08T09:00:38.114Z,7.61
2017-12-08T09:01:18.683Z,7.61
2017-12-08T09:01:59.285Z,7.61
2017-12-08T09:02:39.886Z,7.76
2017-12-08T09:03:20.499Z,7.8